Pagrindinis puslapis
METAR-TAF:

METAR-TAF

Oro uostai :

Şırnak, Turkija

platuma: 37-21-50N, ilguma: 42-03-36E, Aukštis: 621 m

Dabartinis oras

Ataskaita buvo paskelbta 6 valandos ir 19 minutes, ne 12:50 UTC
Vėjas 4 kt nuo kintamojo kryptimis
Temperatūra 26°C
Drėgmė 16%
Slėgis 1019 hPa
Matomumas 10 km arba daugiau
Mažai debesys ne aukštis 4000 ft

METAR: LTCV 221250Z VRB04KT 9999 FEW040 26/M02 Q1019

Laikas: 22:09 (19:09 UTC)

Prognozė

Ataskaita buvo paskelbta 2 valandos ir 29 minutes, ne 16:40 UTC
Prognozė galioja nuo 22 metu 18 UTC su 23 metu 18 UTC
Vėjas 7 kt iš Vakarų
Matomumas 10 km arba daugiau
nėra debesų žemiau 1500 m ir nėra kamuolinių lietaus debesų

TAF: LTCV 221640Z 2218/2318 27007KT CAVOK

Orai ataskaitas ir orų prognozės (METAR, TAF).

turimą stotys yra geltonos ir raudonos taškus žemėlapyje.

Perkelti pele per norėdami pamatyti stoties vardą.

Tada spustelėkite, norėdami matyti oro stebėjimo ir prognozės.

Norėdami pakeisti žemėlapį: spustelėkite ant žalios mygtukų su juodo kryžiaus žemyn,; žalią mygtuką su brūkšneliu, jei norite nutolinti; arba žalių rodyklių gretimoms žemėlapius.


METAR-TAF: